PDX weather

Portland International Airport
Portland, Oregon, United States

Public forecast

Using degrees Fahrenheit for public forecast. Weather courtesy of forecast.io.

Current aviation weather report (METAR) for Portland International Airport

Retrieved 2019/10/21 23:40 UTC (0 seconds ago):

KPDX 212340Z 19011KT 10SM FEW021 BKN028 OVC034 16/12 A3026

Aviation forecast (TAF) for Portland International Airport

Retrieved 2019/10/21 18:39 UTC (5 hours ago):

TAF KPDX 211736Z 2118/2218 20010KT P6SM -SHRA SCT022 OVC045 FM220000 21008KT P6SM -RA BKN025 OVC040 FM220500 VRB05KT P6SM -RA BKN013 OVC030 FM221600 26005KT 6SM -RA SCT010 BKN026